createdAt,value
2018-09-21T00:01:39.464Z,19.27
2018-09-21T00:04:10.539Z,19.26
2018-09-21T00:06:38.829Z,19.25
2018-09-21T00:09:08.208Z,19.24
2018-09-21T00:11:36.496Z,19.26
2018-09-21T00:14:04.596Z,19.25
2018-09-21T00:16:32.658Z,19.25
2018-09-21T00:19:00.729Z,19.25
2018-09-21T00:21:28.817Z,19.23
2018-09-21T00:23:56.829Z,19.20
2018-09-21T00:26:24.887Z,19.19
2018-09-21T00:28:53.192Z,19.22
2018-09-21T00:31:21.248Z,19.22
2018-09-21T00:33:49.317Z,19.25
2018-09-21T00:36:17.399Z,19.27
2018-09-21T00:38:45.456Z,19.29
2018-09-21T00:41:13.558Z,19.31
2018-09-21T00:43:41.595Z,19.33
2018-09-21T00:46:09.644Z,19.33
2018-09-21T00:48:37.696Z,19.37
2018-09-21T00:51:05.796Z,19.38
2018-09-21T00:53:33.850Z,19.40
2018-09-21T00:56:01.936Z,19.41
2018-09-21T00:58:29.984Z,19.39
2018-09-21T01:00:58.044Z,19.41
2018-09-21T01:03:26.089Z,19.42
2018-09-21T01:05:54.153Z,19.44
2018-09-21T01:08:22.193Z,19.44
2018-09-21T01:10:50.262Z,19.45
2018-09-21T01:13:18.314Z,19.45
2018-09-21T01:15:46.358Z,19.45
2018-09-21T01:18:14.412Z,19.42
2018-09-21T01:20:42.460Z,19.43
2018-09-21T01:23:10.514Z,19.42
2018-09-21T01:25:38.584Z,19.40
2018-09-21T01:28:06.652Z,19.37
2018-09-21T01:30:34.684Z,19.37
2018-09-21T01:33:02.752Z,19.35
2018-09-21T01:35:30.831Z,19.32
2018-09-21T01:37:58.859Z,19.31
2018-09-21T01:40:26.923Z,19.29
2018-09-21T01:42:54.972Z,19.27
2018-09-21T01:45:23.040Z,19.27
2018-09-21T01:47:51.091Z,19.26
2018-09-21T01:50:19.188Z,19.25
2018-09-21T01:52:47.200Z,19.23
2018-09-21T01:55:15.275Z,19.22
2018-09-21T01:57:43.321Z,19.21
2018-09-21T02:00:11.385Z,19.19
2018-09-21T02:02:39.480Z,19.17
2018-09-21T02:05:07.525Z,19.16
2018-09-21T02:07:35.595Z,19.14
2018-09-21T02:10:03.642Z,19.15
2018-09-21T02:12:31.704Z,19.12
2018-09-21T02:14:59.803Z,19.11
2018-09-21T02:17:27.848Z,19.11
2018-09-21T02:19:55.888Z,19.09
2018-09-21T02:22:23.935Z,19.09
2018-09-21T02:24:52.017Z,19.10
2018-09-21T02:27:20.060Z,19.11
2018-09-21T02:29:48.108Z,19.13
2018-09-21T02:32:16.178Z,19.14
2018-09-21T02:34:44.224Z,19.18
2018-09-21T02:37:12.292Z,19.21
2018-09-21T02:39:40.352Z,19.24
2018-09-21T02:42:08.426Z,19.26
2018-09-21T02:44:36.470Z,19.28
2018-09-21T02:47:04.512Z,19.30
2018-09-21T02:49:32.551Z,19.31
2018-09-21T02:52:00.625Z,19.33
2018-09-21T02:54:28.677Z,19.34
2018-09-21T02:56:56.719Z,19.35
2018-09-21T02:59:24.784Z,19.38
2018-09-21T03:01:52.840Z,19.40
2018-09-21T03:04:20.881Z,19.42
2018-09-21T03:06:49.029Z,19.45
2018-09-21T03:09:17.088Z,19.47
2018-09-21T03:11:45.128Z,19.49
2018-09-21T03:14:13.184Z,19.53
2018-09-21T03:16:41.220Z,19.53
2018-09-21T03:19:09.271Z,19.55
2018-09-21T03:21:37.315Z,19.56
2018-09-21T03:24:05.368Z,19.56
2018-09-21T03:26:33.442Z,19.59
2018-09-21T03:29:01.496Z,19.61
2018-09-21T03:31:29.577Z,19.60
2018-09-21T03:33:57.652Z,19.60
2018-09-21T03:36:25.701Z,19.61
2018-09-21T03:38:53.791Z,19.61
2018-09-21T03:41:21.841Z,19.60
2018-09-21T03:43:49.888Z,19.60
2018-09-21T03:46:17.968Z,19.60
2018-09-21T03:48:46.040Z,19.58
2018-09-21T03:51:14.140Z,19.57
2018-09-21T03:53:42.226Z,19.58
2018-09-21T03:56:10.232Z,19.61
2018-09-21T03:58:38.289Z,19.61
2018-09-21T04:01:06.787Z,19.62
2018-09-21T04:03:34.884Z,19.64
2018-09-21T04:06:02.981Z,19.65
2018-09-21T04:08:31.036Z,19.65
2018-09-21T04:10:59.160Z,19.66
2018-09-21T04:13:27.229Z,19.69
2018-09-21T04:15:55.287Z,19.71
2018-09-21T04:18:23.351Z,19.74
2018-09-21T04:20:51.396Z,19.76
2018-09-21T04:23:19.478Z,19.77
2018-09-21T04:25:47.524Z,19.79
2018-09-21T04:28:15.588Z,19.80
2018-09-21T04:30:43.657Z,19.81
2018-09-21T04:33:11.725Z,19.85
2018-09-21T04:35:39.800Z,19.86
2018-09-21T04:38:07.842Z,19.87
2018-09-21T04:40:35.912Z,19.88
2018-09-21T04:43:03.973Z,19.88
2018-09-21T04:45:32.044Z,19.88
2018-09-21T04:48:00.096Z,19.89
2018-09-21T04:50:28.148Z,19.91
2018-09-21T04:52:56.220Z,19.93
2018-09-21T04:55:24.292Z,19.93
2018-09-21T04:57:52.355Z,19.93
2018-09-21T05:00:20.420Z,19.95
2018-09-21T05:02:48.472Z,19.94
2018-09-21T05:05:16.536Z,19.97
2018-09-21T05:07:44.592Z,19.98
2018-09-21T05:10:12.639Z,19.99
2018-09-21T05:12:40.725Z,20.01
2018-09-21T05:15:08.792Z,20.02
2018-09-21T05:17:36.856Z,20.07
2018-09-21T05:20:04.977Z,20.12
2018-09-21T05:22:33.052Z,20.18
2018-09-21T05:25:01.149Z,20.22
2018-09-21T05:27:29.234Z,20.25
2018-09-21T05:29:57.280Z,20.29
2018-09-21T05:32:25.360Z,20.33
2018-09-21T05:34:53.428Z,20.38
2018-09-21T05:37:21.530Z,20.41
2018-09-21T05:39:49.605Z,20.45
2018-09-21T05:42:17.695Z,20.49
2018-09-21T05:44:45.800Z,20.53
2018-09-21T05:47:13.920Z,20.58
2018-09-21T05:49:41.973Z,20.63
2018-09-21T05:52:10.584Z,20.68
2018-09-21T05:54:38.649Z,20.71
2018-09-21T05:57:06.832Z,20.75
2018-09-21T05:59:34.912Z,20.79
2018-09-21T06:02:03.029Z,20.84
2018-09-21T06:04:31.050Z,20.91
2018-09-21T06:06:59.141Z,20.96
2018-09-21T06:09:27.218Z,21.01
2018-09-21T06:11:55.280Z,21.06
2018-09-21T06:14:23.353Z,21.11
2018-09-21T06:16:51.428Z,21.17
2018-09-21T06:19:19.515Z,21.25
2018-09-21T06:21:47.557Z,21.32
2018-09-21T06:24:15.633Z,21.43
2018-09-21T06:26:43.700Z,21.54
2018-09-21T06:29:11.760Z,21.64
2018-09-21T06:31:39.833Z,21.72
2018-09-21T06:34:07.944Z,21.76
2018-09-21T06:36:36.032Z,21.79
2018-09-21T06:39:06.264Z,21.80
2018-09-21T06:41:34.375Z,21.74
2018-09-21T06:44:02.440Z,21.80
2018-09-21T06:46:30.516Z,21.79
2018-09-21T06:48:58.563Z,21.89
2018-09-21T06:51:26.632Z,21.92
2018-09-21T06:53:54.689Z,21.95
2018-09-21T06:56:22.764Z,21.98
2018-09-21T06:58:50.823Z,22.00
2018-09-21T07:01:18.957Z,22.05
2018-09-21T07:03:46.963Z,22.10
2018-09-21T07:06:15.113Z,22.15
2018-09-21T07:08:43.159Z,22.20
2018-09-21T07:11:11.212Z,22.25
2018-09-21T07:13:39.280Z,22.29
2018-09-21T07:16:07.332Z,22.32
2018-09-21T07:18:35.395Z,22.36
2018-09-21T07:21:03.454Z,22.40
2018-09-21T07:23:31.501Z,22.47
2018-09-21T07:25:59.599Z,22.55
2018-09-21T07:28:27.667Z,22.64
2018-09-21T07:30:55.730Z,22.71
2018-09-21T07:33:23.780Z,22.82
2018-09-21T07:35:51.855Z,22.89
2018-09-21T07:38:19.912Z,22.99
2018-09-21T07:40:48.000Z,23.09
2018-09-21T07:43:16.069Z,23.23
2018-09-21T07:45:44.130Z,23.39
2018-09-21T07:48:12.208Z,23.52
2018-09-21T07:50:40.360Z,23.63
2018-09-21T07:53:08.626Z,23.75
2018-09-21T07:55:36.696Z,23.85
2018-09-21T07:58:04.756Z,23.92
2018-09-21T08:00:32.823Z,24.00
2018-09-21T08:03:00.920Z,24.09
2018-09-21T08:05:35.075Z,24.17
2018-09-21T08:08:04.671Z,24.22
2018-09-21T08:10:32.713Z,24.25
2018-09-21T08:13:01.348Z,24.26
2018-09-21T08:15:29.999Z,24.26
2018-09-21T08:17:58.120Z,24.26
2018-09-21T08:20:26.540Z,24.25
2018-09-21T08:22:54.644Z,24.24
2018-09-21T08:25:22.681Z,24.24
2018-09-21T08:27:50.740Z,24.25
2018-09-21T08:30:18.877Z,24.26
2018-09-21T08:32:46.942Z,24.30
2018-09-21T08:35:14.992Z,24.35
2018-09-21T08:37:43.103Z,24.41
2018-09-21T08:40:11.176Z,24.44
2018-09-21T08:42:39.248Z,24.48
2018-09-21T08:45:07.767Z,24.51
2018-09-21T08:47:35.825Z,24.56
2018-09-21T08:50:03.876Z,24.59
2018-09-21T08:52:31.937Z,24.63
2018-09-21T08:55:00.056Z,24.68
2018-09-21T08:57:28.113Z,24.72
2018-09-21T08:59:56.186Z,24.73
2018-09-21T09:02:24.232Z,24.73
2018-09-21T09:04:52.311Z,24.77
2018-09-21T09:07:20.383Z,24.77
2018-09-21T09:09:48.428Z,24.79
2018-09-21T09:12:16.501Z,24.84
2018-09-21T09:14:44.561Z,24.86
2018-09-21T09:17:12.641Z,24.86
2018-09-21T09:19:40.702Z,24.85
2018-09-21T09:22:08.772Z,24.82
2018-09-21T09:24:36.889Z,24.80
2018-09-21T09:27:04.936Z,24.77
2018-09-21T09:29:32.991Z,24.75
2018-09-21T09:32:01.097Z,24.77
2018-09-21T09:34:29.159Z,24.84
2018-09-21T09:36:57.302Z,24.90
2018-09-21T09:39:25.261Z,24.92
2018-09-21T09:41:53.330Z,24.90
2018-09-21T09:44:21.404Z,24.89
2018-09-21T09:46:49.488Z,24.85
2018-09-21T09:49:17.583Z,24.78
2018-09-21T09:51:45.634Z,24.69
2018-09-21T09:54:13.704Z,24.60
2018-09-21T09:56:41.772Z,24.51
2018-09-21T09:59:09.876Z,24.38
2018-09-21T10:01:37.944Z,24.26
2018-09-21T10:04:06.020Z,24.15
2018-09-21T10:06:34.104Z,24.01
2018-09-21T10:09:02.174Z,23.88
2018-09-21T10:11:30.253Z,23.79
2018-09-21T10:13:58.312Z,23.69
2018-09-21T10:16:27.237Z,23.57
2018-09-21T10:18:55.261Z,23.47
2018-09-21T10:21:23.324Z,23.40
2018-09-21T10:23:51.382Z,23.33
2018-09-21T10:26:19.451Z,23.27
2018-09-21T10:28:47.643Z,23.23
2018-09-21T10:31:15.597Z,23.20
2018-09-21T10:33:43.770Z,23.19
2018-09-21T10:36:11.735Z,23.14
2018-09-21T10:38:39.873Z,23.10
2018-09-21T10:41:07.865Z,23.11
2018-09-21T10:43:35.928Z,22.99
2018-09-21T10:46:03.996Z,22.91
2018-09-21T10:48:32.061Z,22.79
2018-09-21T10:51:00.471Z,22.32
2018-09-21T10:53:28.235Z,21.35
2018-09-21T10:55:56.299Z,20.49
2018-09-21T10:58:24.376Z,19.93
2018-09-21T11:00:52.449Z,19.53
2018-09-21T11:03:20.509Z,19.05
2018-09-21T11:05:48.571Z,18.73
2018-09-21T11:08:16.655Z,18.34
2018-09-21T11:10:44.916Z,18.13
2018-09-21T11:13:13.042Z,17.93
2018-09-21T11:15:41.038Z,17.77
2018-09-21T11:18:09.126Z,17.55
2018-09-21T11:20:37.201Z,17.43
2018-09-21T11:23:05.469Z,17.29
2018-09-21T11:25:33.541Z,17.20
2018-09-21T11:28:01.613Z,17.18
2018-09-21T11:30:29.681Z,17.16
2018-09-21T11:32:57.770Z,17.12
2018-09-21T11:35:25.837Z,17.15
2018-09-21T11:37:53.899Z,17.17
2018-09-21T11:40:21.962Z,17.18
2018-09-21T11:42:50.012Z,17.22
2018-09-21T11:45:18.101Z,17.27
2018-09-21T11:47:46.197Z,17.29
2018-09-21T11:50:14.452Z,17.32
2018-09-21T11:52:42.520Z,17.36
2018-09-21T11:55:10.588Z,17.39
2018-09-21T11:57:38.861Z,17.42
2018-09-21T12:00:06.937Z,17.47
2018-09-21T12:02:34.985Z,17.50
2018-09-21T12:05:03.107Z,17.53
2018-09-21T12:07:31.105Z,17.55
2018-09-21T12:09:59.177Z,17.60
2018-09-21T12:12:27.239Z,17.63
2018-09-21T12:14:55.325Z,17.69
2018-09-21T12:17:23.386Z,17.71
2018-09-21T12:19:51.438Z,17.71
2018-09-21T12:22:19.493Z,17.71
2018-09-21T12:24:47.556Z,17.71
2018-09-21T12:27:15.631Z,17.69
2018-09-21T12:29:43.705Z,17.69
2018-09-21T12:32:11.769Z,17.71
2018-09-21T12:34:39.864Z,17.71
2018-09-21T12:37:07.930Z,17.72
2018-09-21T12:39:35.996Z,17.79
2018-09-21T12:42:04.051Z,17.76
2018-09-21T12:44:32.183Z,17.73
2018-09-21T12:47:00.200Z,17.75
2018-09-21T12:49:28.269Z,17.74
2018-09-21T12:51:56.334Z,17.71
2018-09-21T12:54:24.442Z,17.63
2018-09-21T12:56:52.559Z,17.65
2018-09-21T12:59:20.605Z,17.64
2018-09-21T13:01:48.663Z,17.63
2018-09-21T13:04:16.732Z,17.60
2018-09-21T13:06:44.797Z,17.64
2018-09-21T13:09:12.872Z,17.68
2018-09-21T13:11:40.914Z,17.75
2018-09-21T13:14:08.981Z,17.79
2018-09-21T13:16:37.036Z,17.79
2018-09-21T13:19:05.161Z,17.81
2018-09-21T13:21:40.026Z,17.83
2018-09-21T13:24:08.092Z,17.85
2018-09-21T13:26:36.160Z,17.84
2018-09-21T13:29:04.184Z,17.88
2018-09-21T13:31:32.256Z,17.93
2018-09-21T13:34:00.295Z,17.96
2018-09-21T13:36:28.367Z,17.99
2018-09-21T13:38:56.421Z,17.95
2018-09-21T13:41:24.506Z,17.98
2018-09-21T13:43:52.565Z,18.01
2018-09-21T13:46:20.653Z,17.94
2018-09-21T13:48:48.722Z,17.84
2018-09-21T13:51:16.796Z,17.82
2018-09-21T13:53:44.861Z,17.81
2018-09-21T13:56:12.932Z,17.75
2018-09-21T13:58:40.993Z,17.71
2018-09-21T14:01:09.053Z,17.72
2018-09-21T14:03:37.124Z,17.71
2018-09-21T14:06:05.916Z,17.71
2018-09-21T14:08:34.841Z,17.75
2018-09-21T14:11:02.940Z,17.72
2018-09-21T14:13:30.990Z,17.68
2018-09-21T14:15:59.080Z,17.68
2018-09-21T14:18:27.149Z,17.68
2018-09-21T14:20:55.538Z,17.63
2018-09-21T14:23:23.669Z,17.60
2018-09-21T14:25:51.740Z,17.62
2018-09-21T14:28:19.820Z,17.60
2018-09-21T14:30:47.895Z,17.59
2018-09-21T14:33:15.956Z,17.60
2018-09-21T14:35:44.086Z,17.65
2018-09-21T14:38:12.105Z,17.68
2018-09-21T14:40:40.220Z,17.65
2018-09-21T14:43:08.325Z,17.66
2018-09-21T14:45:36.374Z,17.67
2018-09-21T14:48:04.460Z,17.65
2018-09-21T14:50:32.561Z,17.63
2018-09-21T14:53:00.609Z,17.63
2018-09-21T14:55:28.714Z,17.66
2018-09-21T14:57:56.801Z,17.65
2018-09-21T15:00:24.872Z,17.65
2018-09-21T15:02:53.216Z,17.69
2018-09-21T15:05:21.286Z,17.71
2018-09-21T15:07:49.689Z,17.73
2018-09-21T15:10:17.760Z,17.81
2018-09-21T15:12:45.840Z,17.87
2018-09-21T15:15:13.940Z,18.02
2018-09-21T15:17:41.992Z,18.11
2018-09-21T15:20:10.051Z,18.19
2018-09-21T15:22:38.249Z,18.17
2018-09-21T15:25:06.360Z,18.13
2018-09-21T15:27:34.452Z,18.12
2018-09-21T15:30:02.510Z,18.13
2018-09-21T15:32:30.591Z,18.08
2018-09-21T15:34:58.660Z,18.00
2018-09-21T15:37:26.704Z,17.94
2018-09-21T15:39:54.760Z,17.74
2018-09-21T15:42:22.848Z,17.63
2018-09-21T15:44:50.909Z,17.50
2018-09-21T15:47:18.976Z,17.49
2018-09-21T15:49:47.040Z,17.53
2018-09-21T15:52:15.092Z,17.48
2018-09-21T15:54:43.126Z,17.42
2018-09-21T15:57:11.167Z,17.36
2018-09-21T15:59:39.233Z,17.29
2018-09-21T16:02:07.302Z,17.27
2018-09-21T16:04:35.357Z,17.23
2018-09-21T16:07:03.463Z,17.32
2018-09-21T16:09:31.505Z,17.81
2018-09-21T16:11:59.668Z,18.20
2018-09-21T16:14:27.658Z,18.47
2018-09-21T16:16:55.701Z,18.66
2018-09-21T16:19:23.800Z,18.86
2018-09-21T16:21:51.868Z,19.04
2018-09-21T16:24:19.999Z,18.71
2018-09-21T16:26:48.004Z,18.34
2018-09-21T16:29:16.084Z,18.08
2018-09-21T16:31:44.164Z,17.91
2018-09-21T16:34:12.264Z,17.71
2018-09-21T16:36:40.343Z,17.52
2018-09-21T16:39:09.908Z,17.43
2018-09-21T16:41:38.030Z,17.37
2018-09-21T16:44:06.346Z,17.27
2018-09-21T16:46:34.549Z,17.17
2018-09-21T16:49:02.619Z,17.05
2018-09-21T16:51:30.713Z,16.97
2018-09-21T16:53:58.719Z,16.99
2018-09-21T16:56:26.798Z,17.04
2018-09-21T16:58:54.878Z,16.97
2018-09-21T17:01:22.945Z,16.94
2018-09-21T17:03:51.009Z,16.93
2018-09-21T17:06:19.080Z,16.90
2018-09-21T17:08:47.149Z,16.85
2018-09-21T17:11:15.233Z,16.81
2018-09-21T17:13:43.278Z,16.74
2018-09-21T17:16:11.339Z,16.70
2018-09-21T17:18:39.409Z,16.69
2018-09-21T17:21:07.473Z,16.67
2018-09-21T17:23:35.529Z,16.68
2018-09-21T17:26:03.614Z,16.62
2018-09-21T17:28:31.701Z,16.59
2018-09-21T17:30:59.797Z,16.52
2018-09-21T17:33:27.865Z,16.49
2018-09-21T17:35:55.920Z,16.51
2018-09-21T17:38:24.049Z,16.49
2018-09-21T17:40:52.147Z,16.50
2018-09-21T17:43:20.373Z,16.48
2018-09-21T17:45:48.444Z,16.46
2018-09-21T17:48:16.570Z,16.44
2018-09-21T17:50:44.651Z,16.39
2018-09-21T17:53:12.715Z,16.31
2018-09-21T17:55:40.777Z,16.24
2018-09-21T17:58:08.876Z,16.17
2018-09-21T18:00:36.976Z,16.17
2018-09-21T18:03:05.041Z,16.14
2018-09-21T18:05:33.106Z,16.12
2018-09-21T18:08:01.150Z,16.12
2018-09-21T18:10:29.248Z,16.10
2018-09-21T18:12:57.792Z,16.10
2018-09-21T18:15:25.872Z,16.08
2018-09-21T18:17:54.040Z,16.08
2018-09-21T18:20:22.132Z,16.06
2018-09-21T18:22:50.290Z,16.06
2018-09-21T18:25:18.388Z,16.04
2018-09-21T18:27:46.448Z,16.05
2018-09-21T18:30:14.504Z,16.03
2018-09-21T18:32:42.572Z,16.00
2018-09-21T18:35:10.630Z,15.95
2018-09-21T18:37:38.681Z,15.93
2018-09-21T18:40:07.480Z,15.90
2018-09-21T18:42:35.542Z,15.88
2018-09-21T18:45:03.632Z,15.84
2018-09-21T18:47:31.719Z,15.83
2018-09-21T18:50:00.080Z,15.77
2018-09-21T18:52:34.005Z,15.74
2018-09-21T18:55:02.064Z,15.69
2018-09-21T18:57:30.107Z,15.66
2018-09-21T18:59:58.160Z,15.62
2018-09-21T19:02:26.228Z,15.57
2018-09-21T19:04:54.279Z,15.51
2018-09-21T19:07:27.800Z,15.49
2018-09-21T19:09:55.851Z,15.45
2018-09-21T19:12:23.996Z,15.43
2018-09-21T19:14:52.089Z,15.39
2018-09-21T19:17:20.169Z,15.40
2018-09-21T19:19:48.264Z,15.40
2018-09-21T19:22:16.490Z,15.38
2018-09-21T19:24:44.621Z,15.37
2018-09-21T19:27:12.676Z,15.34
2018-09-21T19:29:40.740Z,15.31
2018-09-21T19:32:08.844Z,15.28
2018-09-21T19:34:36.892Z,15.26
2018-09-21T19:37:05.032Z,15.22
2018-09-21T19:39:33.132Z,15.18
2018-09-21T19:42:01.192Z,15.13
2018-09-21T19:44:29.264Z,15.09
2018-09-21T19:46:57.364Z,15.07
2018-09-21T19:49:25.450Z,15.06
2018-09-21T19:51:53.537Z,14.97
2018-09-21T19:54:21.650Z,14.92
2018-09-21T19:56:49.701Z,14.89
2018-09-21T19:59:17.808Z,14.84
2018-09-21T20:01:45.873Z,14.73
2018-09-21T20:04:13.950Z,14.66
2018-09-21T20:06:42.004Z,14.61
2018-09-21T20:09:11.226Z,14.53
2018-09-21T20:11:39.279Z,14.50
2018-09-21T20:14:07.384Z,14.47
2018-09-21T20:16:35.491Z,14.40
2018-09-21T20:19:03.518Z,14.34
2018-09-21T20:21:31.636Z,14.25
2018-09-21T20:23:59.708Z,14.19
2018-09-21T20:26:27.788Z,14.17
2018-09-21T20:28:55.849Z,14.12
2018-09-21T20:31:29.519Z,14.08
2018-09-21T20:33:57.572Z,14.05
2018-09-21T20:36:25.646Z,14.00
2018-09-21T20:38:53.712Z,13.98
2018-09-21T20:41:21.777Z,13.92
2018-09-21T20:43:49.832Z,13.88
2018-09-21T20:46:17.880Z,13.89
2018-09-21T20:48:45.961Z,13.85
2018-09-21T20:51:14.036Z,13.81
2018-09-21T20:53:42.088Z,13.77
2018-09-21T20:56:10.145Z,13.76
2018-09-21T20:58:38.190Z,13.75
2018-09-21T21:01:06.288Z,13.66
2018-09-21T21:03:34.355Z,13.64
2018-09-21T21:06:02.419Z,13.60
2018-09-21T21:08:30.564Z,13.56
2018-09-21T21:10:58.640Z,13.51
2018-09-21T21:13:26.688Z,13.44
2018-09-21T21:15:54.771Z,13.39
2018-09-21T21:18:23.112Z,13.34
2018-09-21T21:20:51.185Z,13.32
2018-09-21T21:23:19.232Z,13.26
2018-09-21T21:25:47.334Z,13.24
2018-09-21T21:28:15.389Z,13.22
2018-09-21T21:30:43.459Z,13.16
2018-09-21T21:33:11.531Z,13.15
2018-09-21T21:35:39.615Z,13.10
2018-09-21T21:38:07.700Z,13.01
2018-09-21T21:40:35.758Z,12.93
2018-09-21T21:43:03.807Z,12.90
2018-09-21T21:45:31.877Z,12.91
2018-09-21T21:47:59.928Z,12.91
2018-09-21T21:50:28.020Z,12.94
2018-09-21T21:52:56.105Z,12.92
2018-09-21T21:55:24.190Z,12.87
2018-09-21T21:57:52.241Z,12.84
2018-09-21T22:00:20.316Z,12.82
2018-09-21T22:02:48.425Z,12.76
2018-09-21T22:05:16.484Z,12.72
2018-09-21T22:07:44.551Z,12.74
2018-09-21T22:10:12.616Z,12.72
2018-09-21T22:12:46.019Z,12.71
2018-09-21T22:15:18.556Z,12.65
2018-09-21T22:17:47.036Z,12.66
2018-09-21T22:20:15.161Z,12.66
2018-09-21T22:22:43.212Z,12.64
2018-09-21T22:25:11.857Z,12.64
2018-09-21T22:27:40.132Z,12.59
2018-09-21T22:30:08.723Z,12.54
2018-09-21T22:32:36.860Z,12.49
2018-09-21T22:35:04.956Z,12.45
2018-09-21T22:37:32.999Z,12.46
2018-09-21T22:40:01.070Z,12.44
2018-09-21T22:42:29.104Z,12.42
2018-09-21T22:44:57.203Z,12.41
2018-09-21T22:47:25.240Z,12.41
2018-09-21T22:49:53.293Z,12.41
2018-09-21T22:52:21.348Z,12.36
2018-09-21T22:54:49.413Z,12.34
2018-09-21T22:57:17.460Z,12.31
2018-09-21T22:59:45.521Z,12.32
2018-09-21T23:02:13.663Z,12.29
2018-09-21T23:04:41.720Z,12.30
2018-09-21T23:07:09.780Z,12.33
2018-09-21T23:09:37.869Z,12.33
2018-09-21T23:12:05.924Z,12.33
2018-09-21T23:14:33.982Z,12.31
2018-09-21T23:17:02.055Z,12.30
2018-09-21T23:19:30.109Z,12.28
2018-09-21T23:21:58.185Z,12.25
2018-09-21T23:24:26.241Z,12.24
2018-09-21T23:26:54.319Z,12.23
2018-09-21T23:29:22.385Z,12.24
2018-09-21T23:31:50.510Z,12.22
2018-09-21T23:34:18.554Z,12.20
2018-09-21T23:36:46.582Z,12.20
2018-09-21T23:39:14.648Z,12.21
2018-09-21T23:41:42.711Z,12.21
2018-09-21T23:44:10.840Z,12.24
2018-09-21T23:46:38.952Z,12.28
2018-09-21T23:49:07.068Z,12.30
2018-09-21T23:51:35.272Z,12.32
2018-09-21T23:54:03.328Z,12.32
2018-09-21T23:56:31.428Z,12.36
2018-09-21T23:58:59.496Z,12.37
